Time;durP1;ratioP1;P1;durP2;ratioP2;P2;SDS_P1;SDS_P2;PMS_P1;PMS_P2;Temp;Humidity;BMP_temperature;BMP_pressure;BME280_temperature;BME280_humidity;BME280_pressure;Samples;Min_cycle;Max_cycle;Signal;HPM_P1;HPM_P2
2023/01/22 00:01:46;;;;;;;11.90;7.50;;;;;;;;;;5033153;28;20040;-83
2023/01/22 00:04:13;;;;;;;18.05;10.05;;;;;;;;;;5029069;28;20110;-83
2023/01/22 00:06:39;;;;;;;12.38;7.75;;;;;;;;;;5042517;28;20131;-83
2023/01/22 00:09:05;;;;;;;11.93;6.90;;;;;;;;;;5048492;28;20072;-83
2023/01/22 00:11:31;;;;;;;12.60;7.78;;;;;;;;;;5048578;28;20041;-83
2023/01/22 00:13:57;;;;;;;15.82;8.10;;;;;;;;;;5034796;28;20040;-83
2023/01/22 00:16:23;;;;;;;13.82;7.88;;;;;;;;;;5048637;28;20559;-83
2023/01/22 00:18:49;;;;;;;12.80;8.27;;;;;;;;;;5048227;28;20044;-83
2023/01/22 00:21:15;;;;;;;14.35;8.02;;;;;;;;;;5039987;28;20477;-83
2023/01/22 00:23:41;;;;;;;14.35;7.88;;;;;;;;;;5047949;28;20078;-83
2023/01/22 00:26:12;;;;;;;14.40;8.35;;;;;;;;;;5039831;28;20153;-83
2023/01/22 00:28:40;;;;;;;17.23;8.65;;;;;;;;;;5040537;28;20044;-83
2023/01/22 00:31:06;;;;;;;12.52;7.40;;;;;;;;;;5048465;28;20073;-83
2023/01/22 00:33:32;;;;;;;13.05;7.15;;;;;;;;;;5048022;28;20042;-83
2023/01/22 00:36:05;;;;;;;14.70;7.93;;;;;;;;;;5045507;28;20144;-83
2023/01/22 00:38:31;;;;;;;12.70;7.95;;;;;;;;;;5021457;28;20517;-83
2023/01/22 00:41:01;;;;;;;11.73;7.47;;;;;;;;;;5047839;28;20056;-83
2023/01/22 00:43:27;;;;;;;12.18;7.65;;;;;;;;;;5047983;28;20516;-83
2023/01/22 00:45:53;;;;;;;12.82;7.28;;;;;;;;;;5047376;28;20063;-83
2023/01/22 00:48:19;;;;;;;17.05;8.25;;;;;;;;;;5017838;28;20048;-83
2023/01/22 00:50:45;;;;;;;14.55;7.82;;;;;;;;;;5047932;28;20040;-83
2023/01/22 00:53:11;;;;;;;15.77;7.88;;;;;;;;;;5042921;28;20511;-83
2023/01/22 00:55:37;;;;;;;11.75;7.43;;;;;;;;;;5027610;28;20100;-83
2023/01/22 00:58:03;;;;;;;14.75;7.75;;;;;;;;;;5040608;28;20083;-83
2023/01/22 01:00:29;;;;;;;14.80;7.80;;;;;;;;;;5029157;28;20068;-83
2023/01/22 01:05:39;;;;;;;13.15;7.80;;;;;;;;;;5047182;28;20571;-83
2023/01/22 01:08:05;;;;;;;14.07;8.60;;;;;;;;;;5036205;28;20122;-83
2023/01/22 01:10:31;;;;;;;13.30;7.32;;;;;;;;;;5044763;28;20097;-83
2023/01/22 01:12:57;;;;;;;11.98;8.13;;;;;;;;;;5046646;28;20083;-83
2023/01/22 01:15:23;;;;;;;14.18;7.35;;;;;;;;;;5033227;28;20099;-83
2023/01/22 01:17:49;;;;;;;16.08;7.47;;;;;;;;;;5047479;28;20044;-83
2023/01/22 01:20:15;;;;;;;16.17;8.90;;;;;;;;;;5047283;28;20040;-84
2023/01/22 01:22:41;;;;;;;11.65;7.40;;;;;;;;;;5027578;28;20040;-83
2023/01/22 01:25:07;;;;;;;13.68;7.15;;;;;;;;;;5027199;28;20056;-83
2023/01/22 01:27:33;;;;;;;16.38;8.50;;;;;;;;;;5026784;28;20502;-83
2023/01/22 01:29:59;;;;;;;14.90;7.70;;;;;;;;;;5036621;28;20049;-83
2023/01/22 01:32:25;;;;;;;17.95;8.35;;;;;;;;;;5030983;28;20416;-84
2023/01/22 01:34:51;;;;;;;18.20;8.80;;;;;;;;;;5027042;28;20072;-83
2023/01/22 01:37:17;;;;;;;15.35;8.10;;;;;;;;;;5027132;28;20059;-83
2023/01/22 01:39:43;;;;;;;17.08;9.10;;;;;;;;;;5027262;28;20495;-83
2023/01/22 01:42:09;;;;;;;14.93;9.00;;;;;;;;;;5022106;28;20036;-83
2023/01/22 01:44:36;;;;;;;16.00;8.55;;;;;;;;;;5046612;28;20060;-83
2023/01/22 01:47:12;;;;;;;14.68;8.38;;;;;;;;;;5046771;28;20059;-83
2023/01/22 01:49:44;;;;;;;19.10;9.10;;;;;;;;;;5046894;28;20044;-83
2023/01/22 01:52:11;;;;;;;15.70;8.45;;;;;;;;;;5046913;28;20506;-83
2023/01/22 01:54:38;;;;;;;16.02;8.55;;;;;;;;;;5030370;28;20407;-83
2023/01/22 01:57:10;;;;;;;15.10;8.13;;;;;;;;;;5034999;28;20086;-83
2023/01/22 01:59:36;;;;;;;19.80;9.13;;;;;;;;;;5035272;28;20132;-83
2023/01/22 02:02:02;;;;;;;14.48;7.88;;;;;;;;;;5026305;28;20049;-83
2023/01/22 02:04:29;;;;;;;14.85;8.43;;;;;;;;;;5035890;28;20044;-83
2023/01/22 02:06:55;;;;;;;16.73;9.18;;;;;;;;;;5031179;28;20510;-83
2023/01/22 02:09:21;;;;;;;16.55;8.70;;;;;;;;;;5034179;28;20048;-83
2023/01/22 02:11:49;;;;;;;14.88;8.80;;;;;;;;;;5045974;28;20097;-83
2023/01/22 02:14:17;;;;;;;16.13;8.68;;;;;;;;;;5026393;28;20128;-83
2023/01/22 02:16:43;;;;;;;20.77;9.65;;;;;;;;;;5038563;28;20051;-84
2023/01/22 02:19:09;;;;;;;19.38;8.85;;;;;;;;;;5041589;28;20135;-83
2023/01/22 02:21:40;;;;;;;19.02;9.05;;;;;;;;;;5026239;28;20135;-83
2023/01/22 02:24:10;;;;;;;19.55;9.45;;;;;;;;;;5042382;28;20048;-83
2023/01/22 02:26:36;;;;;;;20.33;9.27;;;;;;;;;;5039744;28;20093;-83
2023/01/22 02:29:03;;;;;;;21.45;9.70;;;;;;;;;;5034245;28;20045;-83
2023/01/22 02:31:29;;;;;;;20.67;9.32;;;;;;;;;;5037919;28;20040;-83
2023/01/22 02:33:55;;;;;;;17.80;9.30;;;;;;;;;;5049984;28;20040;-83
2023/01/22 02:36:21;;;;;;;16.00;8.27;;;;;;;;;;5050072;28;20497;-83
2023/01/22 02:38:47;;;;;;;18.33;8.77;;;;;;;;;;5049899;28;20072;-83
2023/01/22 02:41:14;;;;;;;17.30;9.10;;;;;;;;;;5033251;28;20044;-83
2023/01/22 02:43:40;;;;;;;18.80;9.57;;;;;;;;;;5049627;28;20048;-83
2023/01/22 02:46:06;;;;;;;19.42;9.50;;;;;;;;;;5049537;28;20060;-83
2023/01/22 02:48:32;;;;;;;18.48;10.25;;;;;;;;;;5041299;28;20119;-83
2023/01/22 02:50:58;;;;;;;18.73;9.60;;;;;;;;;;5027225;28;20387;-83
2023/01/22 02:53:24;;;;;;;19.88;10.20;;;;;;;;;;5032756;28;20055;-83
2023/01/22 02:55:50;;;;;;;19.42;9.98;;;;;;;;;;5049693;28;20589;-83
2023/01/22 02:58:16;;;;;;;18.83;9.57;;;;;;;;;;5045606;28;20052;-83
2023/01/22 03:00:42;;;;;;;17.77;10.00;;;;;;;;;;5046117;28;20068;-83
2023/01/22 03:03:14;;;;;;;26.63;10.68;;;;;;;;;;5048980;28;20072;-83
2023/01/22 03:05:43;;;;;;;18.92;9.85;;;;;;;;;;5018615;28;20459;-83
2023/01/22 03:08:09;;;;;;;18.88;9.63;;;;;;;;;;5049017;28;20098;-83
2023/01/22 03:10:35;;;;;;;20.80;10.35;;;;;;;;;;5023365;28;20458;-83
2023/01/22 03:21:17;;;;;;;16.98;8.85;;;;;;;;;;5045618;28;20044;-83
2023/01/22 03:23:47;;;;;;;18.45;10.10;;;;;;;;;;5046304;28;20036;-83
2023/01/22 03:26:13;;;;;;;18.80;9.38;;;;;;;;;;5048938;28;20119;-83
2023/01/22 03:28:39;;;;;;;19.35;10.35;;;;;;;;;;5028021;28;20501;-83
2023/01/22 03:31:06;;;;;;;16.75;9.50;;;;;;;;;;5028960;28;20605;-84
2023/01/22 03:33:32;;;;;;;15.57;8.63;;;;;;;;;;5044267;28;20047;-83
2023/01/22 03:35:59;;;;;;;17.27;9.02;;;;;;;;;;5048286;28;20036;-83
2023/01/22 03:38:25;;;;;;;17.70;8.70;;;;;;;;;;5048686;28;20045;-83
2023/01/22 03:40:51;;;;;;;18.23;10.18;;;;;;;;;;5048765;28;20436;-83
2023/01/22 03:43:17;;;;;;;16.70;10.55;;;;;;;;;;5048671;28;20123;-83
2023/01/22 03:45:43;;;;;;;17.98;8.18;;;;;;;;;;5048539;28;20399;-83
2023/01/22 03:48:09;;;;;;;18.83;9.05;;;;;;;;;;5032249;28;20048;-83
2023/01/22 03:50:35;;;;;;;21.80;9.13;;;;;;;;;;5048791;28;20045;-83
2023/01/22 03:53:02;;;;;;;15.82;8.93;;;;;;;;;;5048657;28;20033;-83
2023/01/22 03:55:29;;;;;;;17.35;9.27;;;;;;;;;;5048493;28;20349;-82
2023/01/22 03:57:55;;;;;;;16.55;8.82;;;;;;;;;;5048974;28;20157;-83
2023/01/22 04:00:21;;;;;;;17.40;8.85;;;;;;;;;;5048434;28;20044;-83
2023/01/22 04:02:48;;;;;;;20.33;10.55;;;;;;;;;;5046518;28;20037;-83
2023/01/22 04:05:14;;;;;;;18.45;8.65;;;;;;;;;;5048502;28;20052;-83
2023/01/22 04:07:40;;;;;;;14.13;8.02;;;;;;;;;;5044658;28;20044;-83
2023/01/22 04:10:06;;;;;;;17.13;9.13;;;;;;;;;;5048689;28;20056;-83
2023/01/22 04:12:32;;;;;;;16.48;7.97;;;;;;;;;;5031634;28;20036;-83
2023/01/22 04:14:58;;;;;;;15.20;7.00;;;;;;;;;;5048312;28;20040;-83
2023/01/22 04:17:24;;;;;;;14.45;8.07;;;;;;;;;;5048592;28;20051;-83
2023/01/22 04:19:50;;;;;;;14.23;8.15;;;;;;;;;;5046932;28;20510;-83
2023/01/22 04:22:16;;;;;;;13.13;8.02;;;;;;;;;;5031360;28;20051;-83
2023/01/22 04:24:42;;;;;;;15.27;7.97;;;;;;;;;;5047528;28;20125;-83
2023/01/22 04:27:08;;;;;;;15.85;7.63;;;;;;;;;;5040542;28;20467;-83
2023/01/22 04:29:34;;;;;;;15.95;7.68;;;;;;;;;;5041289;28;20052;-83
2023/01/22 04:32:00;;;;;;;14.65;7.35;;;;;;;;;;5047455;28;20044;-83
2023/01/22 04:34:26;;;;;;;14.65;7.05;;;;;;;;;;5047749;28;20051;-84
2023/01/22 04:36:52;;;;;;;14.48;7.72;;;;;;;;;;5047618;28;20051;-83
2023/01/22 04:39:18;;;;;;;13.73;6.97;;;;;;;;;;5047868;28;20036;-83
2023/01/22 04:41:44;;;;;;;13.10;6.57;;;;;;;;;;5047164;28;20044;-83
2023/01/22 04:44:10;;;;;;;10.90;6.25;;;;;;;;;;5046956;28;20554;-83
2023/01/22 04:46:36;;;;;;;14.25;6.63;;;;;;;;;;5046504;28;20076;-83
2023/01/22 04:49:02;;;;;;;10.25;5.57;;;;;;;;;;5016828;28;20052;-83
2023/01/22 04:51:28;;;;;;;10.70;5.53;;;;;;;;;;5019108;28;20094;-83
2023/01/22 04:53:53;;;;;;;10.38;6.00;;;;;;;;;;5041198;28;20041;-83
2023/01/22 04:56:19;;;;;;;10.10;4.93;;;;;;;;;;5027367;28;20098;-83
2023/01/22 04:58:45;;;;;;;10.10;5.97;;;;;;;;;;5043097;28;20055;-83
2023/01/22 05:01:11;;;;;;;9.73;5.82;;;;;;;;;;5047137;28;20052;-83
2023/01/22 05:03:37;;;;;;;12.27;5.35;;;;;;;;;;5032968;28;20519;-83
2023/01/22 05:06:04;;;;;;;8.65;5.20;;;;;;;;;;5047454;28;20153;-83
2023/01/22 05:08:30;;;;;;;10.32;6.07;;;;;;;;;;5030160;28;20044;-83
2023/01/22 05:10:59;;;;;;;9.20;5.25;;;;;;;;;;5047130;28;20068;-83
2023/01/22 05:13:25;;;;;;;11.25;5.63;;;;;;;;;;5047086;28;20052;-83
2023/01/22 05:15:51;;;;;;;11.00;5.10;;;;;;;;;;5047285;28;20047;-83
2023/01/22 05:18:17;;;;;;;12.23;5.70;;;;;;;;;;5047215;28;20040;-83
2023/01/22 05:20:43;;;;;;;8.15;5.53;;;;;;;;;;5045577;28;20112;-83
2023/01/22 05:23:09;;;;;;;9.20;5.55;;;;;;;;;;5046417;28;20130;-83
2023/01/22 05:25:35;;;;;;;8.68;5.68;;;;;;;;;;5037596;28;20170;-84
2023/01/22 05:28:01;;;;;;;10.52;5.95;;;;;;;;;;5042064;28;20138;-83
2023/01/22 05:30:27;;;;;;;7.95;5.18;;;;;;;;;;5046817;28;20518;-83
2023/01/22 05:32:56;;;;;;;11.13;5.97;;;;;;;;;;5046564;28;20413;-83
2023/01/22 05:35:23;;;;;;;9.85;5.07;;;;;;;;;;5046357;28;20045;-83
2023/01/22 05:37:49;;;;;;;10.43;5.38;;;;;;;;;;5046484;28;20131;-83
2023/01/22 05:40:15;;;;;;;11.07;5.00;;;;;;;;;;5046493;28;20159;-83
2023/01/22 05:42:41;;;;;;;10.75;5.53;;;;;;;;;;5046680;28;20048;-83
2023/01/22 05:45:07;;;;;;;9.05;5.30;;;;;;;;;;5046718;28;20064;-83
2023/01/22 05:47:33;;;;;;;9.48;5.50;;;;;;;;;;5047130;28;20049;-83
2023/01/22 05:49:59;;;;;;;9.00;5.22;;;;;;;;;;5046908;28;20533;-83
2023/01/22 05:52:25;;;;;;;9.07;4.82;;;;;;;;;;5046310;28;20044;-83
2023/01/22 05:54:51;;;;;;;11.55;5.28;;;;;;;;;;5046368;28;20458;-83
2023/01/22 05:57:17;;;;;;;10.10;4.72;;;;;;;;;;5046315;28;20040;-83
2023/01/22 05:59:43;;;;;;;10.32;5.80;;;;;;;;;;5050424;28;20141;-83
2023/01/22 06:02:09;;;;;;;7.68;5.22;;;;;;;;;;5050623;28;20048;-83
2023/01/22 06:04:35;;;;;;;10.10;5.35;;;;;;;;;;5050485;28;20529;-83
2023/01/22 06:07:01;;;;;;;9.15;4.93;;;;;;;;;;5050084;28;20140;-83
2023/01/22 06:09:26;;;;;;;9.40;5.13;;;;;;;;;;5049935;28;20044;-83
2023/01/22 06:11:52;;;;;;;8.07;4.57;;;;;;;;;;5033495;28;20044;-83
2023/01/22 06:14:18;;;;;;;12.30;5.45;;;;;;;;;;5050258;28;20041;-83
2023/01/22 06:16:44;;;;;;;11.30;5.90;;;;;;;;;;5050329;28;20036;-83
2023/01/22 06:19:11;;;;;;;8.88;5.57;;;;;;;;;;5050181;28;20048;-83
2023/01/22 06:21:37;;;;;;;11.43;5.38;;;;;;;;;;5048057;28;20044;-83
2023/01/22 06:24:03;;;;;;;7.72;5.22;;;;;;;;;;5023056;28;20146;-83
2023/01/22 06:26:29;;;;;;;10.23;5.50;;;;;;;;;;5046470;28;20060;-83
2023/01/22 06:28:55;;;;;;;9.93;5.57;;;;;;;;;;5050231;28;20514;-83
2023/01/22 06:31:21;;;;;;;8.93;5.55;;;;;;;;;;5035819;28;20049;-83
2023/01/22 06:33:47;;;;;;;10.55;5.68;;;;;;;;;;5050067;28;20037;-83
2023/01/22 06:36:13;;;;;;;11.38;5.55;;;;;;;;;;5049928;28;20148;-83
2023/01/22 06:38:39;;;;;;;12.50;5.13;;;;;;;;;;5033532;28;20044;-83
2023/01/22 06:41:05;;;;;;;9.10;5.68;;;;;;;;;;5050300;28;20036;-83
2023/01/22 06:43:31;;;;;;;10.40;5.38;;;;;;;;;;5049851;28;20066;-83
2023/01/22 06:45:57;;;;;;;12.93;5.78;;;;;;;;;;5050210;28;20060;-83
2023/01/22 06:48:23;;;;;;;10.63;5.18;;;;;;;;;;5049835;28;20041;-83
2023/01/22 06:50:49;;;;;;;10.15;5.88;;;;;;;;;;5050141;28;20101;-83
2023/01/22 06:53:15;;;;;;;9.35;4.70;;;;;;;;;;5049684;28;20040;-83
2023/01/22 06:55:41;;;;;;;9.48;5.78;;;;;;;;;;5033244;28;20040;-83
2023/01/22 06:58:07;;;;;;;12.15;5.13;;;;;;;;;;5050015;28;20040;-83
2023/01/22 07:00:33;;;;;;;10.70;5.90;;;;;;;;;;5049971;28;20048;-84
2023/01/22 07:02:59;;;;;;;10.32;5.40;;;;;;;;;;5049886;28;20349;-83
2023/01/22 07:05:26;;;;;;;11.45;5.10;;;;;;;;;;5049227;28;20567;-83
2023/01/22 07:07:53;;;;;;;7.32;4.78;;;1.10;99.90;;;;;;5049509;28;20047;-83
2023/01/22 07:10:19;;;;;;;13.57;6.18;;;;;;;;;;5048384;28;20071;-83
2023/01/22 07:12:45;;;;;;;10.98;5.82;;;;;;;;;;5049336;28;20060;-83
2023/01/22 07:15:11;;;;;;;8.07;5.40;;;;;;;;;;5049497;28;20473;-83
2023/01/22 07:17:37;;;;;;;11.88;5.60;;;;;;;;;;5049560;28;20044;-83
2023/01/22 07:20:04;;;;;;;13.20;6.20;;;;;;;;;;5032626;28;20068;-83
2023/01/22 07:22:33;;;;;;;9.98;5.93;;;;;;;;;;5049289;28;20068;-83
2023/01/22 07:24:59;;;;;;;9.45;5.15;;;;;;;;;;5049037;28;20056;-83
2023/01/22 07:27:25;;;;;;;9.27;6.57;;;;;;;;;;5049663;28;20048;-83
2023/01/22 07:29:51;;;;;;;10.43;5.75;;;;;;;;;;5049155;28;20046;-83
2023/01/22 07:32:17;;;;;;;10.52;5.53;;;;;;;;;;5030615;28;20456;-84
2023/01/22 07:34:43;;;;;;;9.07;5.30;;;;;;;;;;5032450;28;20153;-84
2023/01/22 07:37:09;;;;;;;10.82;6.15;;;;;;;;;;5049223;28;20500;-83
2023/01/22 07:39:35;;;;;;;9.85;5.70;;;;;;;;;;5049889;28;20055;-84
2023/01/22 07:42:01;;;;;;;10.18;6.43;;;;;;;;;;5047176;28;20506;-84
2023/01/22 07:44:27;;;;;;;11.10;5.60;;;;;;;;;;5047092;28;20056;-84
2023/01/22 07:46:53;;;;;;;9.65;5.72;;;;;;;;;;5049034;28;20051;-84
2023/01/22 07:49:19;;;;;;;11.07;6.13;;;;;;;;;;5046831;28;20122;-83
2023/01/22 07:51:45;;;;;;;8.90;5.68;;;;;;;;;;5048656;28;20048;-84
2023/01/22 07:54:11;;;;;;;7.50;5.90;;;;;;;;;;5048568;28;20044;-83
2023/01/22 07:56:37;;;;;;;8.88;6.07;;;;;;;;;;5036713;28;20126;-83
2023/01/22 07:59:03;;;;;;;10.30;6.13;;;;;;;;;;5045101;28;20043;-84
2023/01/22 08:01:28;;;;;;;8.60;5.70;;;;;;;;;;5039841;28;20049;-84
2023/01/22 08:03:56;;;;;;;10.32;6.00;;;;;;;;;;5044585;28;20048;-83
2023/01/22 08:06:22;;;;;;;9.25;5.32;;;;;;;;;;5048479;28;20059;-84
2023/01/22 08:08:48;;;;;;;10.63;6.22;;;;;;;;;;5048446;28;20048;-85
2023/01/22 08:11:14;;;;;;;7.80;6.00;;;;;;;;;;5031952;28;20465;-83
2023/01/22 08:13:40;;;;;;;8.52;6.25;;;;;;;;;;5037639;28;20040;-84
2023/01/22 08:16:08;;;;;;;10.68;5.88;;;;;;;;;;5032239;28;20109;-83
2023/01/22 08:18:34;;;;;;;11.05;6.15;;;;;;;;;;5048297;28;20041;-84
2023/01/22 08:21:00;;;;;;;10.52;6.75;;;;;;;;;;5046167;28;20087;-84
2023/01/22 08:23:26;;;;;;;8.98;6.05;;;;;;;;;;5048508;28;20087;-84
2023/01/22 08:25:52;;;;;;;11.85;6.57;;;;;;;;;;5047899;28;20032;-83
2023/01/22 08:28:19;;;;;;;9.77;6.75;;;;;;;;;;5047405;28;20501;-83
2023/01/22 08:30:44;;;;;;;10.35;6.80;;;;;;;;;;5047585;28;20052;-83
2023/01/22 08:33:10;;;;;;;9.15;6.82;;;;;;;;;;5030985;28;20123;-85
2023/01/22 08:35:40;;;;;;;8.13;5.90;;;;;;;;;;5038334;28;20048;-86
2023/01/22 08:38:05;;;;;;;13.48;7.00;;;;;;;;;;5047563;28;20047;-84
2023/01/22 08:40:32;;;;;;;11.02;7.30;;;;;;;;;;5048021;28;20040;-84
2023/01/22 08:42:58;;;;;;;13.30;7.15;;;;;;;;;;5031123;28;20036;-84
2023/01/22 08:45:24;;;;;;;9.20;6.88;;;;;;;;;;5046016;28;20045;-84
2023/01/22 08:47:50;;;;;;;12.35;7.53;;;;;;;;;;5036781;28;20057;-84
2023/01/22 08:50:17;;;;;;;11.27;6.63;;;;;;;;;;5042599;28;20066;-84
2023/01/22 08:52:43;;;;;;;10.70;7.10;;;;;;;;;;5046639;28;20044;-86
2023/01/22 08:55:09;;;;;;;9.90;6.68;;;;;;;;;;5027254;28;20567;-86
2023/01/22 08:57:35;;;;;;;11.57;6.80;;;;;;;;;;5028725;28;20033;-84
2023/01/22 09:00:02;;;;;;;9.95;7.35;;;;;;;;;;5047765;28;20437;-86
2023/01/22 09:02:28;;;;;;;11.15;7.22;;;;;;;;;;5042784;28;20044;-89
2023/01/22 09:04:54;;;;;;;9.80;7.88;;;;;;;;;;5011088;28;20044;-84
2023/01/22 09:07:19;;;;;;;13.63;7.70;;;;;;;;;;5041440;28;20044;-85
2023/01/22 09:09:45;;;;;;;11.93;7.65;;;;;;;;;;5045999;28;20040;-84
2023/01/22 09:12:11;;;;;;;12.85;7.13;;;;;;;;;;5047458;28;20070;-85
2023/01/22 09:14:37;;;;;;;9.10;7.15;;;;;;;;;;5033157;28;20460;-85
2023/01/22 09:17:03;;;;;;;9.50;7.22;;;;;;;;;;5047455;28;20078;-85
2023/01/22 09:19:29;;;;;;;16.23;7.70;;;;;;;;;;5047297;28;20048;-86
2023/01/22 09:21:55;;;;;;;10.85;7.43;;;;;;;;;;5049213;28;20485;-85
2023/01/22 09:24:21;;;;;;;11.25;7.75;;;;;;;;;;5045769;28;20135;-85
2023/01/22 09:26:47;;;;;;;12.02;7.82;;;;;;;;;;5049717;28;20090;-85
2023/01/22 09:29:13;;;;;;;15.05;8.13;;;;;;;;;;5030871;28;20044;-85
2023/01/22 09:31:39;;;;;;;9.63;6.97;;;;;;;;;;5047074;28;20123;-85
2023/01/22 09:34:05;;;;;;;9.85;7.35;;;;;;;;;;5046185;28;20041;-85
2023/01/22 09:36:31;;;;;;;10.60;7.45;;;;;;;;;;5047110;28;20080;-84
2023/01/22 09:38:57;;;;;;;10.60;6.68;;;;;;;;;;5047573;28;20764;-85
2023/01/22 09:41:26;;;;;;;12.95;6.60;;;;;;;;;;5031166;28;20051;-85
2023/01/22 09:44:30;;;;;;;16.17;8.43;;;1.40;99.90;;;;;;5046711;28;20052;-85
2023/01/22 09:46:58;;;;;;;10.25;6.50;;;;;;;;;;5044949;28;20127;-85
2023/01/22 09:49:27;;;;;;;11.40;6.57;;;;;;;;;;5030588;28;20048;-85
2023/01/22 09:51:54;;;;;;;9.23;6.20;;;;;;;;;;5047463;28;20044;-86
2023/01/22 09:54:20;;;;;;;8.27;5.65;;;;;;;;;;5030167;28;20041;-86
2023/01/22 09:56:51;;;;;;;10.82;6.28;;;;;;;;;;5046882;28;20121;-85
2023/01/22 09:59:18;;;;;;;11.05;7.40;;;;;;;;;;5033416;28;20292;-85
2023/01/22 10:01:52;;;;;;;10.80;6.15;;;;;;;;;;5046399;28;20045;-85
2023/01/22 10:04:22;;;;;;;9.82;6.35;;;;;;;;;;5043912;28;20045;-86
2023/01/22 10:06:49;;;;;;;9.63;5.80;;;;;;;;;;5030015;28;20049;-86
2023/01/22 10:09:17;;;;;;;8.98;5.97;;;;;;;;;;5041706;28;20045;-85
2023/01/22 10:11:45;;;;;;;10.32;6.80;;;;;;;;;;5046224;28;20033;-85
2023/01/22 10:14:17;;;;;;;9.20;6.65;;;;;;;;;;5046465;28;20641;-85
2023/01/22 10:16:44;;;;;;;10.20;6.55;;;;;;;;;;5046179;28;20043;-85
2023/01/22 10:19:23;;;;;;;8.30;6.28;;;;;;;;;;5030135;28;20460;-86
2023/01/22 10:21:51;;;;;;;7.60;6.03;;;;;;;;;;5029775;28;20554;-85
2023/01/22 10:24:17;;;;;;;9.65;6.55;;;;;;;;;;5046120;28;20041;-85
2023/01/22 10:26:53;;;;;;;10.07;5.82;;;1.50;99.90;;;;;;5046194;28;20094;-85
2023/01/22 10:29:19;;;;;;;;;;;;;;;;;;5029883;28;20127;-85
2023/01/22 10:31:46;;;;;;;12.45;5.82;;;;;;;;;;5046163;28;20018;-85
2023/01/22 10:34:15;;;;;;;8.60;6.03;;;;;;;;;;5036028;28;20047;-86
2023/01/22 10:36:47;;;;;;;11.82;5.63;;;;;;;;;;5029570;28;20029;-86
2023/01/22 10:39:14;;;;;;;11.27;5.85;;;;;;;;;;5037426;28;20059;-86
2023/01/22 10:41:41;;;;;;;9.70;6.15;;;;;;;;;;5046085;28;20060;-84
2023/01/22 10:44:18;;;;;;;7.93;5.47;;;;;;;;;;5031554;28;20055;-91
2023/01/22 10:46:48;;;;;;;8.88;5.88;;;;;;;;;;5047548;28;20056;-91
2023/01/22 10:49:19;;;;;;;8.40;5.43;;;;;;;;;;5033885;28;20052;-85
2023/01/22 10:51:56;;;;;;;10.10;5.90;;;;;;;;;;5050771;28;20414;-85
2023/01/22 10:54:24;;;;;;;8.55;5.80;;;;;;;;;;5050291;28;20045;-88
2023/01/22 10:56:51;;;;;;;9.45;6.13;;;;;;;;;;5049888;28;20055;-84
2023/01/22 10:59:22;;;;;;;10.65;6.13;;;;;;;;;;5050012;28;20509;-87
2023/01/22 11:01:54;;;;;;;9.30;6.13;;;;;;;;;;5033284;28;20558;-89
2023/01/22 11:04:27;;;;;;;9.55;5.97;;;;;;;;;;5031054;28;20049;-91
2023/01/22 11:06:55;;;;;;;9.77;6.55;;;;;;;;;;5049366;28;20053;-92
2023/01/22 11:09:30;;;;;;;11.75;6.90;;;;;;;;;;5045401;28;20053;-91
2023/01/22 11:11:59;;;;;;;;;;;2.50;99.90;;;;;;5033933;28;20540;-90
2023/01/22 11:14:32;;;;;;;9.25;6.10;;;;;;;;;;5019585;28;19925;-88
2023/01/22 11:17:01;;;;;;;9.80;6.45;;;;;;;;;;5033542;28;20121;-87
2023/01/22 11:19:29;;;;;;;10.73;6.88;;;;;;;;;;5049360;28;20085;-86
2023/01/22 11:21:55;;;;;;;11.73;6.82;;;;;;;;;;5049258;28;20051;-85
2023/01/22 11:24:24;;;;;;;10.15;6.47;;;;;;;;;;5032566;28;20044;-84
2023/01/22 11:26:58;;;;;;;8.60;6.38;;;;;;;;;;5027300;28;20041;-85
2023/01/22 11:29:27;;;;;;;8.75;6.43;;;;;;;;;;5041845;28;20079;-84
2023/01/22 11:31:59;;;;;;;11.27;6.45;;;;;;;;;;5032828;28;20074;-84
2023/01/22 11:34:34;;;;;;;10.90;6.80;;;;;;;;;;5044154;28;20032;-84
2023/01/22 11:37:09;;;;;;;9.45;6.75;;;;;;;;;;5044206;28;20083;-85
2023/01/22 11:39:43;;;;;;;7.57;6.13;;;;;;;;;;5042681;28;20059;-85
2023/01/22 11:42:29;;;;;;;10.15;7.13;;;;;;;;;;5044943;28;20142;-84
2023/01/22 11:45:15;;;;;;;9.32;6.78;;;;;;;;;;5043158;28;20106;-85
2023/01/22 11:47:54;;;;;;;10.85;6.53;;;;;;;;;;5036647;28;20056;-85
2023/01/22 11:50:23;;;;;;;14.68;6.57;;;;;;;;;;5032934;28;20472;-84
2023/01/22 11:52:58;;;;;;;12.55;7.22;;;;;;;;;;5039314;28;20158;-84
2023/01/22 11:55:43;;;;;;;13.75;7.30;;;;;;;;;;5046630;28;20371;-85
2023/01/22 11:58:12;;;;;;;9.52;5.97;;;;;;;;;;5048616;28;20056;-85
2023/01/22 12:00:53;;;;;;;9.95;6.25;;;2.70;99.90;;;;;;5031094;28;20075;-84
2023/01/22 12:03:19;;;;;;;8.85;6.60;;;;;;;;;;5048217;28;20040;-85
2023/01/22 12:05:50;;;;;;;11.98;7.28;;;;;;;;;;5047837;28;20537;-84
2023/01/22 12:08:34;;;;;;;11.32;7.53;;;;;;;;;;5046461;28;20067;-84
2023/01/22 12:11:00;;;;;;;9.63;6.18;;;;;;;;;;5043014;28;20045;-85
2023/01/22 12:13:32;;;;;;;12.20;6.65;;;;;;;;;;5047698;28;20452;-85
2023/01/22 12:16:07;;;;;;;10.52;6.43;;;;;;;;;;5040118;28;20036;-85
2023/01/22 12:18:40;;;;;;;12.38;7.03;;;;;;;;;;5044559;28;20047;-84
2023/01/22 12:21:06;;;;;;;12.07;6.57;;;;;;;;;;5024050;28;20048;-87
2023/01/22 12:23:46;;;;;;;9.70;6.28;;;2.80;99.90;;;;;;5041078;28;20041;-85
2023/01/22 12:26:12;;;;;;;10.38;5.90;;;;;;;;;;5038798;28;20158;-85
2023/01/22 12:28:44;;;;;;;9.60;6.28;;;;;;;;;;5030619;28;20525;-85
2023/01/22 12:31:19;;;;;;;11.77;7.20;;;;;;;;;;5031196;28;20060;-85
2023/01/22 12:33:45;;;;;;;12.07;6.85;;;;;;;;;;5033680;28;20135;-87
2023/01/22 12:36:17;;;;;;;11.32;6.20;;;;;;;;;;5047714;28;20127;-86
2023/01/22 12:38:54;;;;;;;15.40;8.18;;;;;;;;;;5037607;28;20041;-86
2023/01/22 12:41:26;;;;;;;12.98;6.85;;;;;;;;;;5046602;28;20037;-85
2023/01/22 12:43:54;;;;;;;9.38;6.25;;;;;;;;;;5047462;28;20154;-86
2023/01/22 12:46:24;;;;;;;12.10;6.85;;;2.80;99.90;;;;;;5033356;28;20136;-87
2023/01/22 12:48:53;;;;;;;11.57;6.70;;;;;;;;;;5034199;28;20039;-85
2023/01/22 12:51:35;;;;;;;14.65;7.18;;;;;;;;;;5043222;28;20040;-84
2023/01/22 12:54:35;;;;;;;10.50;6.53;;;;;;;;;;5042353;28;20037;-84
2023/01/22 12:57:16;;;;;;;12.20;6.30;;;;;;;;;;5031652;28;20190;-85
2023/01/22 12:59:42;;;;;;;12.40;6.43;;;;;;;;;;5026197;28;20464;-85
2023/01/22 13:02:17;;;;;;;10.70;6.10;;;;;;;;;;5015332;28;20041;-85
2023/01/22 13:04:43;;;;;;;12.15;7.03;;;;;;;;;;5037220;28;20564;-86
2023/01/22 13:07:24;;;;;;;10.10;6.65;;;;;;;;;;5046391;28;20175;-84
2023/01/22 13:10:01;;;;;;;9.88;6.90;;;3.00;99.90;;;;;;5046639;28;20079;-84
2023/01/22 13:12:29;;;;;;;11.95;6.13;;;;;;;;;;5031435;28;20121;-84
2023/01/22 13:14:56;;;;;;;11.30;6.82;;;;;;;;;;5047694;28;20040;-85
2023/01/22 13:17:26;;;;;;;9.52;7.00;;;2.90;99.90;;;;;;5048031;28;20048;-84
2023/01/22 13:19:52;;;;;;;11.00;6.63;;;;;;;;;;5027201;28;20087;-84
2023/01/22 13:22:23;;;;;;;11.50;6.45;;;;;;;;;;5027453;28;20048;-85
2023/01/22 13:24:53;;;;;;;10.25;5.95;;;;;;;;;;5047630;28;20041;-84
2023/01/22 13:27:21;;;;;;;10.43;5.65;;;;;;;;;;5031127;28;20044;-84
2023/01/22 13:29:47;;;;;;;11.82;7.50;;;;;;;;;;5047744;28;20055;-84
2023/01/22 13:32:21;;;;;;;11.27;7.15;;;3.00;99.90;;;;;;5047524;28;20044;-84
2023/01/22 13:34:48;;;;;;;9.48;6.63;;;;;;;;;;5065448;28;20056;-85
2023/01/22 13:37:20;;;;;;;9.77;6.35;;;;;;;;;;5047467;28;20044;-84
2023/01/22 13:39:46;;;;;;;14.70;6.07;;;;;;;;;;5031144;28;20498;-85
2023/01/22 13:42:12;;;;;;;11.68;6.55;;;;;;;;;;5033438;28;20051;-86
2023/01/22 13:44:40;;;;;;;12.43;6.85;;;;;;;;;;5046903;28;20087;-86
2023/01/22 13:47:06;;;;;;;10.73;7.00;;;;;;;;;;5030441;28;20106;-85
2023/01/22 13:49:34;;;;;;;10.73;6.22;;;;;;;;;;5030561;28;20548;-86
2023/01/22 13:52:06;;;;;;;13.77;7.50;;;;;;;;;;5046683;28;20486;-85
2023/01/22 13:54:35;;;;;;;9.07;6.38;;;;;;;;;;5046986;28;20041;-87
2023/01/22 13:57:01;;;;;;;11.65;7.57;;;;;;;;;;5046040;28;20119;-85
2023/01/22 13:59:34;;;;;;;13.05;8.40;;;;;;;;;;5028757;28;20047;-87
2023/01/22 14:02:20;;;;;;;19.63;9.52;;;;;;;;;;5032002;28;20072;-86
2023/01/22 14:04:47;;;;;;;16.80;8.30;;;;;;;;;;5024318;28;20581;-86
2023/01/22 14:07:32;;;;;;;13.55;7.55;;;;;;;;;;5036251;28;20406;-86
2023/01/22 14:10:13;;;;;;;14.48;8.00;;;;;;;;;;5045156;28;20573;-86
2023/01/22 14:12:39;;;;;;;10.00;6.07;;;;;;;;;;5045773;28;20119;-86
2023/01/22 14:15:19;;;;;;;10.98;6.85;;;;;;;;;;5039856;28;20143;-86
2023/01/22 14:17:45;;;;;;;14.30;6.53;;;;;;;;;;5045422;28;20131;-86
2023/01/22 14:20:11;;;;;;;11.43;7.20;;;;;;;;;;5046411;28;20056;-85
2023/01/22 14:22:37;;;;;;;11.20;6.75;;;;;;;;;;5048822;28;20548;-86
2023/01/22 14:25:04;;;;;;;11.27;7.32;;;;;;;;;;5031563;28;20041;-86
2023/01/22 14:27:44;;;;;;;13.52;7.28;;;;;;;;;;5048787;28;20044;-86
2023/01/22 14:30:13;;;;;;;12.30;7.63;;;;;;;;;;5036177;28;20097;-86
2023/01/22 14:32:39;;;;;;;12.73;7.70;;;;;;;;;;5036499;28;20183;-87
2023/01/22 14:35:05;;;;;;;11.57;7.22;;;;;;;;;;5049680;28;20127;-85
2023/01/22 14:37:31;;;;;;;10.25;6.95;;;;;;;;;;5049938;28;20051;-86
2023/01/22 14:39:57;;;;;;;11.38;6.80;;;;;;;;;;5033154;28;20044;-85
2023/01/22 14:42:27;;;;;;;12.52;6.68;;;;;;;;;;5029214;28;20423;-86
2023/01/22 14:44:53;;;;;;;16.90;6.80;;;;;;;;;;5032892;28;20052;-86
2023/01/22 14:47:19;;;;;;;10.32;6.00;;;;;;;;;;5033057;28;20055;-86